sensor_id;sensor_type;location;lat;lon;timestamp;pressure;altitude;pressure_sealevel;temperature;humidity
70555;BME280;58104;52.744;15.242;2023-12-20T00:00:43;100105.75;;;19.13;50.75
70555;BME280;58104;52.744;15.242;2023-12-20T00:03:08;100105.36;;;19.10;50.86
70555;BME280;58104;52.744;15.242;2023-12-20T00:05:33;100107.02;;;19.09;50.90
70555;BME280;58104;52.744;15.242;2023-12-20T00:07:59;100102.60;;;19.08;51.02
70555;BME280;58104;52.744;15.242;2023-12-20T00:10:24;100102.47;;;19.05;51.15
70555;BME280;58104;52.744;15.242;2023-12-20T00:12:50;100100.50;;;19.04;51.29
70555;BME280;58104;52.744;15.242;2023-12-20T00:15:15;100103.34;;;19.03;51.36
70555;BME280;58104;52.744;15.242;2023-12-20T00:17:40;100107.83;;;19.01;51.45
70555;BME280;58104;52.744;15.242;2023-12-20T00:20:08;100110.31;;;19.01;51.56
70555;BME280;58104;52.744;15.242;2023-12-20T00:22:34;100103.43;;;19.00;51.61
70555;BME280;58104;52.744;15.242;2023-12-20T00:24:57;100101.59;;;19.01;51.64
70555;BME280;58104;52.744;15.242;2023-12-20T00:27:22;100101.66;;;18.93;51.75
70555;BME280;58104;52.744;15.242;2023-12-20T00:29:47;100101.92;;;18.99;51.77
70555;BME280;58104;52.744;15.242;2023-12-20T00:32:13;100101.41;;;18.98;51.84
70555;BME280;58104;52.744;15.242;2023-12-20T00:34:38;100097.89;;;18.97;51.87
70555;BME280;58104;52.744;15.242;2023-12-20T00:37:04;100097.74;;;18.97;51.96
70555;BME280;58104;52.744;15.242;2023-12-20T00:39:29;100094.01;;;18.96;52.02
70555;BME280;58104;52.744;15.242;2023-12-20T00:41:54;100090.47;;;18.96;52.09
70555;BME280;58104;52.744;15.242;2023-12-20T00:44:20;100087.00;;;18.95;52.21
70555;BME280;58104;52.744;15.242;2023-12-20T00:46:45;100083.89;;;18.94;52.26
70555;BME280;58104;52.744;15.242;2023-12-20T00:49:10;100082.63;;;19.00;52.39
70555;BME280;58104;52.744;15.242;2023-12-20T00:51:36;100082.28;;;18.93;52.41
70555;BME280;58104;52.744;15.242;2023-12-20T00:54:01;100072.68;;;18.99;52.48
70555;BME280;58104;52.744;15.242;2023-12-20T00:56:27;100067.50;;;18.93;52.55
70555;BME280;58104;52.744;15.242;2023-12-20T00:58:52;100064.51;;;18.93;52.76
70555;BME280;58104;52.744;15.242;2023-12-20T01:01:17;100061.89;;;18.91;52.67
70555;BME280;58104;52.744;15.242;2023-12-20T01:03:43;100058.71;;;18.90;52.71
70555;BME280;58104;52.744;15.242;2023-12-20T01:06:08;100058.19;;;18.89;52.78
70555;BME280;58104;52.744;15.242;2023-12-20T01:08:33;100057.01;;;18.85;52.84
70555;BME280;58104;52.744;15.242;2023-12-20T01:10:59;100056.06;;;18.83;52.79
70555;BME280;58104;52.744;15.242;2023-12-20T01:13:24;100054.23;;;18.87;52.85
70555;BME280;58104;52.744;15.242;2023-12-20T01:15:50;100056.59;;;18.87;52.86
70555;BME280;58104;52.744;15.242;2023-12-20T01:18:15;100056.07;;;18.86;52.99
70555;BME280;58104;52.744;15.242;2023-12-20T01:20:41;100052.29;;;18.85;52.94
70555;BME280;58104;52.744;15.242;2023-12-20T01:23:06;100044.94;;;18.82;53.02
70555;BME280;58104;52.744;15.242;2023-12-20T01:25:31;100038.83;;;18.84;53.01
70555;BME280;58104;52.744;15.242;2023-12-20T01:27:57;100034.72;;;18.82;53.05
70555;BME280;58104;52.744;15.242;2023-12-20T01:30:22;100038.52;;;18.82;53.11
70555;BME280;58104;52.744;15.242;2023-12-20T01:32:47;100037.13;;;18.81;53.17
70555;BME280;58104;52.744;15.242;2023-12-20T01:35:13;100039.30;;;18.86;53.23
70555;BME280;58104;52.744;15.242;2023-12-20T01:37:38;100033.83;;;18.87;53.23
70555;BME280;58104;52.744;15.242;2023-12-20T01:40:05;100032.89;;;18.87;53.41
70555;BME280;58104;52.744;15.242;2023-12-20T01:42:29;100034.83;;;18.87;53.45
70555;BME280;58104;52.744;15.242;2023-12-20T01:44:54;100037.65;;;18.82;53.40
70555;BME280;58104;52.744;15.242;2023-12-20T01:47:20;100037.45;;;18.90;53.55
70555;BME280;58104;52.744;15.242;2023-12-20T01:49:45;100035.70;;;18.84;53.52
70555;BME280;58104;52.744;15.242;2023-12-20T01:52:11;100034.95;;;18.83;53.66
70555;BME280;58104;52.744;15.242;2023-12-20T01:54:37;100029.82;;;18.88;53.71
70555;BME280;58104;52.744;15.242;2023-12-20T01:57:01;100024.40;;;18.78;53.84
70555;BME280;58104;52.744;15.242;2023-12-20T01:59:27;100016.33;;;18.77;53.89
70555;BME280;58104;52.744;15.242;2023-12-20T02:01:52;100018.28;;;18.82;53.99
70555;BME280;58104;52.744;15.242;2023-12-20T02:04:17;100015.40;;;18.79;54.12
70555;BME280;58104;52.744;15.242;2023-12-20T02:06:46;100024.06;;;18.79;54.13
70555;BME280;58104;52.744;15.242;2023-12-20T02:09:08;100024.59;;;18.80;54.24
70555;BME280;58104;52.744;15.242;2023-12-20T02:11:33;100018.82;;;18.91;54.26
70555;BME280;58104;52.744;15.242;2023-12-20T02:13:59;100016.43;;;18.79;54.30
70555;BME280;58104;52.744;15.242;2023-12-20T02:16:24;100015.77;;;18.79;54.40
70555;BME280;58104;52.744;15.242;2023-12-20T02:18:50;100010.95;;;18.81;54.52
70555;BME280;58104;52.744;15.242;2023-12-20T02:21:15;100010.46;;;18.80;54.50
70555;BME280;58104;52.744;15.242;2023-12-20T02:23:40;100013.60;;;18.88;54.58
70555;BME280;58104;52.744;15.242;2023-12-20T02:26:06;100013.69;;;18.87;54.75
70555;BME280;58104;52.744;15.242;2023-12-20T02:28:32;100017.38;;;18.88;54.76
70555;BME280;58104;52.744;15.242;2023-12-20T02:30:56;100016.03;;;18.79;54.98
70555;BME280;58104;52.744;15.242;2023-12-20T02:33:22;100017.35;;;18.85;55.11
70555;BME280;58104;52.744;15.242;2023-12-20T02:35:47;100018.46;;;18.86;55.32
70555;BME280;58104;52.744;15.242;2023-12-20T02:38:13;100019.73;;;18.85;55.50
70555;BME280;58104;52.744;15.242;2023-12-20T02:40:38;100022.83;;;18.85;55.77
70555;BME280;58104;52.744;15.242;2023-12-20T02:43:04;100024.84;;;18.82;56.05
70555;BME280;58104;52.744;15.242;2023-12-20T02:45:29;100018.08;;;18.82;56.12
70555;BME280;58104;52.744;15.242;2023-12-20T02:47:55;100026.56;;;18.76;56.16
70555;BME280;58104;52.744;15.242;2023-12-20T02:50:20;100024.21;;;18.79;56.34
70555;BME280;58104;52.744;15.242;2023-12-20T02:52:45;100024.96;;;18.93;56.44
70555;BME280;58104;52.744;15.242;2023-12-20T02:55:11;100021.65;;;18.79;56.75
70555;BME280;58104;52.744;15.242;2023-12-20T02:57:36;100021.82;;;18.93;57.17
70555;BME280;58104;52.744;15.242;2023-12-20T03:00:01;100017.61;;;18.93;57.15
70555;BME280;58104;52.744;15.242;2023-12-20T03:02:26;100017.71;;;18.87;57.39
70555;BME280;58104;52.744;15.242;2023-12-20T03:04:52;100019.67;;;18.86;57.53
70555;BME280;58104;52.744;15.242;2023-12-20T03:07:17;100020.07;;;18.81;57.67
70555;BME280;58104;52.744;15.242;2023-12-20T03:09:43;100019.69;;;18.94;57.78
70555;BME280;58104;52.744;15.242;2023-12-20T03:12:08;100020.02;;;18.81;57.93
70555;BME280;58104;52.744;15.242;2023-12-20T03:14:33;100013.03;;;18.92;58.32
70555;BME280;58104;52.744;15.242;2023-12-20T03:16:59;100014.08;;;18.93;58.40
70555;BME280;58104;52.744;15.242;2023-12-20T03:19:24;100010.77;;;18.93;58.41
70555;BME280;58104;52.744;15.242;2023-12-20T03:21:50;100018.82;;;18.92;58.47
70555;BME280;58104;52.744;15.242;2023-12-20T03:24:15;100021.74;;;18.92;58.50
70555;BME280;58104;52.744;15.242;2023-12-20T03:26:40;100015.41;;;18.97;58.42
70555;BME280;58104;52.744;15.242;2023-12-20T03:29:06;100009.38;;;18.85;58.31
70555;BME280;58104;52.744;15.242;2023-12-20T03:31:31;100009.17;;;18.86;58.19
70555;BME280;58104;52.744;15.242;2023-12-20T03:33:56;100012.79;;;18.83;58.17
70555;BME280;58104;52.744;15.242;2023-12-20T03:36:22;100017.02;;;18.94;58.31
70555;BME280;58104;52.744;15.242;2023-12-20T03:38:47;100018.98;;;18.84;58.32
70555;BME280;58104;52.744;15.242;2023-12-20T03:41:13;100022.16;;;18.85;58.27
70555;BME280;58104;52.744;15.242;2023-12-20T03:43:38;100016.04;;;18.91;58.27
70555;BME280;58104;52.744;15.242;2023-12-20T03:46:04;100011.12;;;18.82;58.31
70555;BME280;58104;52.744;15.242;2023-12-20T03:48:29;100018.13;;;18.83;58.21
70555;BME280;58104;52.744;15.242;2023-12-20T03:50:54;100020.39;;;18.89;58.29
70555;BME280;58104;52.744;15.242;2023-12-20T03:53:19;100023.93;;;18.83;58.35
70555;BME280;58104;52.744;15.242;2023-12-20T03:55:46;100027.09;;;18.90;58.28
70555;BME280;58104;52.744;15.242;2023-12-20T03:58:10;100028.85;;;18.91;58.45
70555;BME280;58104;52.744;15.242;2023-12-20T04:00:36;100028.62;;;18.89;58.55
70555;BME280;58104;52.744;15.242;2023-12-20T04:03:01;100025.03;;;18.91;58.64
70555;BME280;58104;52.744;15.242;2023-12-20T04:05:26;100025.75;;;18.89;58.77
70555;BME280;58104;52.744;15.242;2023-12-20T04:07:52;100030.90;;;18.83;58.76
70555;BME280;58104;52.744;15.242;2023-12-20T04:10:17;100030.81;;;18.90;58.73
70555;BME280;58104;52.744;15.242;2023-12-20T04:12:42;100027.34;;;18.93;58.83
70555;BME280;58104;52.744;15.242;2023-12-20T04:15:08;100026.94;;;18.87;58.95
70555;BME280;58104;52.744;15.242;2023-12-20T04:17:33;100026.39;;;18.82;59.09
70555;BME280;58104;52.744;15.242;2023-12-20T04:19:59;100030.13;;;18.89;59.12
70555;BME280;58104;52.744;15.242;2023-12-20T04:22:24;100026.96;;;18.93;60.03
70555;BME280;58104;52.744;15.242;2023-12-20T04:24:49;100019.74;;;18.85;59.89
70555;BME280;58104;52.744;15.242;2023-12-20T04:27:15;100018.87;;;18.86;59.40
70555;BME280;58104;52.744;15.242;2023-12-20T04:29:40;100012.08;;;18.86;59.01
70555;BME280;58104;52.744;15.242;2023-12-20T04:32:06;100009.39;;;18.85;58.68
70555;BME280;58104;52.744;15.242;2023-12-20T04:34:31;100004.59;;;18.82;58.39
70555;BME280;58104;52.744;15.242;2023-12-20T04:36:56;100009.80;;;18.89;58.16
70555;BME280;58104;52.744;15.242;2023-12-20T04:39:22;100012.31;;;18.88;58.16
70555;BME280;58104;52.744;15.242;2023-12-20T04:41:47;100004.79;;;18.95;58.35
70555;BME280;58104;52.744;15.242;2023-12-20T04:44:13;99997.96;;;18.93;58.46
70555;BME280;58104;52.744;15.242;2023-12-20T04:46:38;100011.55;;;19.03;55.70
70555;BME280;58104;52.744;15.242;2023-12-20T04:49:04;100012.18;;;19.13;50.82
70555;BME280;58104;52.744;15.242;2023-12-20T04:51:29;100013.97;;;19.00;50.79
70555;BME280;58104;52.744;15.242;2023-12-20T04:53:54;100014.70;;;18.87;48.60
70555;BME280;58104;52.744;15.242;2023-12-20T04:56:19;100010.63;;;19.08;47.39
70555;BME280;58104;52.744;15.242;2023-12-20T04:58:45;100013.22;;;18.89;47.56
70555;BME280;58104;52.744;15.242;2023-12-20T05:01:10;100017.26;;;18.72;46.71
70555;BME280;58104;52.744;15.242;2023-12-20T05:03:36;100017.00;;;18.76;46.91
70555;BME280;58104;52.744;15.242;2023-12-20T05:06:01;100019.13;;;18.78;46.86
70555;BME280;58104;52.744;15.242;2023-12-20T05:08:26;100013.43;;;18.82;46.82
70555;BME280;58104;52.744;15.242;2023-12-20T05:10:54;100008.29;;;18.75;46.78
70555;BME280;58104;52.744;15.242;2023-12-20T05:13:17;100002.71;;;18.43;46.80
70555;BME280;58104;52.744;15.242;2023-12-20T05:15:43;99986.49;;;18.04;44.77
70555;BME280;58104;52.744;15.242;2023-12-20T05:18:08;99984.31;;;16.76;47.21
70555;BME280;58104;52.744;15.242;2023-12-20T05:20:34;99983.60;;;16.98;48.54
70555;BME280;58104;52.744;15.242;2023-12-20T05:22:59;99975.52;;;16.92;47.05
70555;BME280;58104;52.744;15.242;2023-12-20T05:25:24;99978.17;;;16.76;46.68
70555;BME280;58104;52.744;15.242;2023-12-20T05:27:50;99984.43;;;17.10;48.72
70555;BME280;58104;52.744;15.242;2023-12-20T05:30:15;99981.28;;;17.04;46.82
70555;BME280;58104;52.744;15.242;2023-12-20T05:32:41;99985.46;;;16.99;46.35
70555;BME280;58104;52.744;15.242;2023-12-20T05:35:06;99980.88;;;16.60;46.83
70555;BME280;58104;52.744;15.242;2023-12-20T05:37:31;99974.98;;;16.96;46.98
70555;BME280;58104;52.744;15.242;2023-12-20T05:39:57;99966.94;;;17.29;45.95
70555;BME280;58104;52.744;15.242;2023-12-20T05:42:22;99964.89;;;17.06;45.47
70555;BME280;58104;52.744;15.242;2023-12-20T05:44:48;99977.00;;;16.71;45.62
70555;BME280;58104;52.744;15.242;2023-12-20T05:47:13;99981.50;;;16.38;45.53
70555;BME280;58104;52.744;15.242;2023-12-20T05:49:39;99980.30;;;16.78;49.12
70555;BME280;58104;52.744;15.242;2023-12-20T05:52:04;99977.61;;;16.88;49.58
70555;BME280;58104;52.744;15.242;2023-12-20T05:54:30;99988.03;;;17.09;49.34
70555;BME280;58104;52.744;15.242;2023-12-20T05:56:55;99983.30;;;17.17;49.41
70555;BME280;58104;52.744;15.242;2023-12-20T05:59:20;99982.26;;;17.19;49.53
70555;BME280;58104;52.744;15.242;2023-12-20T06:01:46;99993.15;;;17.30;49.57
70555;BME280;58104;52.744;15.242;2023-12-20T06:04:11;99984.61;;;17.35;49.63
70555;BME280;58104;52.744;15.242;2023-12-20T06:06:41;99991.88;;;17.47;49.59
70555;BME280;58104;52.744;15.242;2023-12-20T06:09:02;99986.59;;;17.48;49.66
70555;BME280;58104;52.744;15.242;2023-12-20T06:11:27;99987.25;;;17.51;49.67
70555;BME280;58104;52.744;15.242;2023-12-20T06:13:53;99991.26;;;17.56;49.60
70555;BME280;58104;52.744;15.242;2023-12-20T06:16:18;99998.53;;;17.69;49.64
70555;BME280;58104;52.744;15.242;2023-12-20T06:18:44;99990.02;;;17.61;49.54
70555;BME280;58104;52.744;15.242;2023-12-20T06:21:09;99987.21;;;17.65;49.46
70555;BME280;58104;52.744;15.242;2023-12-20T06:23:34;99988.50;;;17.70;49.72
70555;BME280;58104;52.744;15.242;2023-12-20T06:26:00;99984.72;;;17.74;49.51
70555;BME280;58104;52.744;15.242;2023-12-20T06:28:25;99985.35;;;17.72;49.58
70555;BME280;58104;52.744;15.242;2023-12-20T06:30:51;99982.20;;;17.65;49.56
70555;BME280;58104;52.744;15.242;2023-12-20T06:33:17;99987.33;;;17.69;49.57
70555;BME280;58104;52.744;15.242;2023-12-20T06:35:41;99990.93;;;17.76;49.69
70555;BME280;58104;52.744;15.242;2023-12-20T06:38:07;99989.15;;;17.84;49.63
70555;BME280;58104;52.744;15.242;2023-12-20T06:40:32;99993.69;;;17.88;49.42
70555;BME280;58104;52.744;15.242;2023-12-20T06:42:57;99991.94;;;17.91;49.59
70555;BME280;58104;52.744;15.242;2023-12-20T06:45:23;100001.86;;;17.90;49.34
70555;BME280;58104;52.744;15.242;2023-12-20T06:47:48;99997.91;;;17.91;49.52
70555;BME280;58104;52.744;15.242;2023-12-20T06:50:14;100003.99;;;17.99;49.30
70555;BME280;58104;52.744;15.242;2023-12-20T06:52:39;100005.08;;;17.86;49.37
70555;BME280;58104;52.744;15.242;2023-12-20T06:55:05;100012.39;;;17.99;49.46
70555;BME280;58104;52.744;15.242;2023-12-20T06:57:30;100010.72;;;17.92;49.33
70555;BME280;58104;52.744;15.242;2023-12-20T06:59:55;100010.27;;;18.03;49.34
70555;BME280;58104;52.744;15.242;2023-12-20T07:02:21;100005.08;;;17.96;49.35
70555;BME280;58104;52.744;15.242;2023-12-20T07:04:46;99995.66;;;17.89;49.40
70555;BME280;58104;52.744;15.242;2023-12-20T07:07:12;99997.29;;;17.90;49.38
70555;BME280;58104;52.744;15.242;2023-12-20T07:09:37;99997.04;;;17.94;49.21
70555;BME280;58104;52.744;15.242;2023-12-20T07:12:03;99992.06;;;18.11;49.24
70555;BME280;58104;52.744;15.242;2023-12-20T07:14:28;99992.53;;;18.04;48.99
70555;BME280;58104;52.744;15.242;2023-12-20T07:16:53;100003.57;;;17.98;49.16
70555;BME280;58104;52.744;15.242;2023-12-20T07:19:19;100004.31;;;18.05;49.16
70555;BME280;58104;52.744;15.242;2023-12-20T07:21:44;100001.18;;;18.08;49.09
70555;BME280;58104;52.744;15.242;2023-12-20T07:24:10;100006.45;;;17.99;49.12
70555;BME280;58104;52.744;15.242;2023-12-20T07:26:35;99998.28;;;17.95;49.20
70555;BME280;58104;52.744;15.242;2023-12-20T07:29:00;99997.08;;;18.10;49.15
70555;BME280;58104;52.744;15.242;2023-12-20T07:31:26;99993.91;;;18.02;49.21
70555;BME280;58104;52.744;15.242;2023-12-20T07:33:52;100004.03;;;18.00;49.22
70555;BME280;58104;52.744;15.242;2023-12-20T07:36:17;99988.76;;;18.03;49.02
70555;BME280;58104;52.744;15.242;2023-12-20T07:38:42;99987.84;;;18.09;48.97
70555;BME280;58104;52.744;15.242;2023-12-20T07:41:09;99978.95;;;18.20;48.81
70555;BME280;58104;52.744;15.242;2023-12-20T07:43:33;99985.27;;;18.06;48.84
70555;BME280;58104;52.744;15.242;2023-12-20T07:46:04;99979.96;;;18.12;48.92
70555;BME280;58104;52.744;15.242;2023-12-20T07:48:24;99976.92;;;18.07;48.76
70555;BME280;58104;52.744;15.242;2023-12-20T07:50:49;99976.36;;;18.05;48.77
70555;BME280;58104;52.744;15.242;2023-12-20T07:53:15;99985.44;;;18.05;48.78
70555;BME280;58104;52.744;15.242;2023-12-20T07:55:40;99977.54;;;18.06;48.83
70555;BME280;58104;52.744;15.242;2023-12-20T07:58:05;99977.13;;;18.09;48.76
70555;BME280;58104;52.744;15.242;2023-12-20T08:00:31;99972.59;;;18.12;48.53
70555;BME280;58104;52.744;15.242;2023-12-20T08:02:56;99973.69;;;18.14;48.54
70555;BME280;58104;52.744;15.242;2023-12-20T08:05:22;99969.69;;;18.12;48.54
70555;BME280;58104;52.744;15.242;2023-12-20T08:07:47;99980.55;;;18.11;48.54
70555;BME280;58104;52.744;15.242;2023-12-20T08:10:13;99972.32;;;18.16;48.26
70555;BME280;58104;52.744;15.242;2023-12-20T08:12:38;99975.45;;;18.15;48.38
70555;BME280;58104;52.744;15.242;2023-12-20T08:15:04;99974.56;;;18.22;48.35
70555;BME280;58104;52.744;15.242;2023-12-20T08:17:29;99977.26;;;18.19;48.15
70555;BME280;58104;52.744;15.242;2023-12-20T08:19:54;99970.94;;;18.25;48.17
70555;BME280;58104;52.744;15.242;2023-12-20T08:22:20;99966.57;;;18.21;48.04
70555;BME280;58104;52.744;15.242;2023-12-20T08:24:45;99978.65;;;18.19;48.32
70555;BME280;58104;52.744;15.242;2023-12-20T08:27:10;99967.85;;;18.19;48.17
70555;BME280;58104;52.744;15.242;2023-12-20T08:29:36;99964.99;;;18.19;48.22
70555;BME280;58104;52.744;15.242;2023-12-20T08:32:01;99967.20;;;18.16;48.16
70555;BME280;58104;52.744;15.242;2023-12-20T08:34:27;99965.91;;;18.19;48.11
70555;BME280;58104;52.744;15.242;2023-12-20T08:36:52;99969.31;;;18.21;48.10
70555;BME280;58104;52.744;15.242;2023-12-20T08:39:17;99967.31;;;18.21;48.03
70555;BME280;58104;52.744;15.242;2023-12-20T08:41:43;99966.65;;;18.20;47.96
70555;BME280;58104;52.744;15.242;2023-12-20T08:44:08;99963.86;;;18.26;47.84
70555;BME280;58104;52.744;15.242;2023-12-20T08:46:33;99967.62;;;18.24;47.95
70555;BME280;58104;52.744;15.242;2023-12-20T08:48:59;99967.80;;;18.23;47.85
70555;BME280;58104;52.744;15.242;2023-12-20T08:51:24;99964.72;;;18.23;47.93
70555;BME280;58104;52.744;15.242;2023-12-20T08:53:50;99956.60;;;18.23;47.91
70555;BME280;58104;52.744;15.242;2023-12-20T08:56:15;99964.66;;;18.29;47.92
70555;BME280;58104;52.744;15.242;2023-12-20T08:58:41;99954.85;;;18.26;47.68
70555;BME280;58104;52.744;15.242;2023-12-20T09:01:06;99946.96;;;18.25;47.70
70555;BME280;58104;52.744;15.242;2023-12-20T09:03:31;99941.09;;;18.24;47.77
70555;BME280;58104;52.744;15.242;2023-12-20T09:05:56;99950.89;;;18.26;47.72
70555;BME280;58104;52.744;15.242;2023-12-20T09:08:22;99944.42;;;18.24;47.68
70555;BME280;58104;52.744;15.242;2023-12-20T09:10:47;99948.21;;;18.21;47.64
70555;BME280;58104;52.744;15.242;2023-12-20T09:13:13;99941.13;;;18.22;47.49
70555;BME280;58104;52.744;15.242;2023-12-20T09:15:38;99944.16;;;18.24;47.54
70555;BME280;58104;52.744;15.242;2023-12-20T09:18:04;99941.36;;;18.25;47.50
70555;BME280;58104;52.744;15.242;2023-12-20T09:20:29;99944.48;;;18.28;47.48
70555;BME280;58104;52.744;15.242;2023-12-20T09:22:55;99938.29;;;18.22;47.43
70555;BME280;58104;52.744;15.242;2023-12-20T09:25:20;99945.73;;;18.23;47.53
70555;BME280;58104;52.744;15.242;2023-12-20T09:27:45;99933.40;;;18.23;47.36
70555;BME280;58104;52.744;15.242;2023-12-20T09:30:11;99933.88;;;18.26;47.20
70555;BME280;58104;52.744;15.242;2023-12-20T09:32:36;99935.41;;;18.24;47.22
70555;BME280;58104;52.744;15.242;2023-12-20T09:35:01;99928.39;;;18.20;47.34
70555;BME280;58104;52.744;15.242;2023-12-20T09:37:27;99927.56;;;18.21;47.42
70555;BME280;58104;52.744;15.242;2023-12-20T09:39:52;99922.20;;;18.21;47.47
70555;BME280;58104;52.744;15.242;2023-12-20T09:42:23;99915.57;;;18.19;47.41
70555;BME280;58104;52.744;15.242;2023-12-20T09:44:43;99905.48;;;18.23;47.24
70555;BME280;58104;52.744;15.242;2023-12-20T09:47:09;99907.25;;;18.23;47.27
70555;BME280;58104;52.744;15.242;2023-12-20T09:49:34;99913.31;;;18.20;47.11
70555;BME280;58104;52.744;15.242;2023-12-20T09:52:00;99900.45;;;18.21;47.25
70555;BME280;58104;52.744;15.242;2023-12-20T09:54:25;99902.75;;;18.17;47.17
70555;BME280;58104;52.744;15.242;2023-12-20T09:56:50;99900.35;;;18.24;47.21
70555;BME280;58104;52.744;15.242;2023-12-20T09:59:16;99893.89;;;18.36;46.98
70555;BME280;58104;52.744;15.242;2023-12-20T10:01:42;99893.18;;;18.26;46.98
70555;BME280;58104;52.744;15.242;2023-12-20T10:04:07;99894.41;;;18.22;47.06
70555;BME280;58104;52.744;15.242;2023-12-20T10:06:32;99894.21;;;18.24;47.07
70555;BME280;58104;52.744;15.242;2023-12-20T10:08:57;99887.11;;;18.28;46.88
70555;BME280;58104;52.744;15.242;2023-12-20T10:11:22;99886.39;;;18.23;46.98
70555;BME280;58104;52.744;15.242;2023-12-20T10:13:49;99886.40;;;18.24;47.13
70555;BME280;58104;52.744;15.242;2023-12-20T10:16:13;99873.56;;;18.27;46.89
70555;BME280;58104;52.744;15.242;2023-12-20T10:18:39;99880.03;;;18.23;46.96
70555;BME280;58104;52.744;15.242;2023-12-20T10:21:06;99860.36;;;18.32;47.02
70555;BME280;58104;52.744;15.242;2023-12-20T10:23:29;99861.62;;;18.29;46.79
70555;BME280;58104;52.744;15.242;2023-12-20T10:25:56;99865.76;;;18.29;46.69
70555;BME280;58104;52.744;15.242;2023-12-20T10:28:20;99866.13;;;18.27;46.75
70555;BME280;58104;52.744;15.242;2023-12-20T10:30:45;99849.60;;;18.27;46.74
70555;BME280;58104;52.744;15.242;2023-12-20T10:33:11;99838.84;;;18.25;46.85
70555;BME280;58104;52.744;15.242;2023-12-20T10:35:38;99837.40;;;18.31;46.64
70555;BME280;58104;52.744;15.242;2023-12-20T10:38:04;99834.71;;;18.23;46.76
70555;BME280;58104;52.744;15.242;2023-12-20T10:40:27;99835.33;;;18.18;46.74
70555;BME280;58104;52.744;15.242;2023-12-20T10:42:53;99834.37;;;18.21;46.79
70555;BME280;58104;52.744;15.242;2023-12-20T10:45:18;99842.33;;;18.15;46.77
70555;BME280;58104;52.744;15.242;2023-12-20T10:47:46;99837.69;;;18.18;46.76
70555;BME280;58104;52.744;15.242;2023-12-20T10:50:09;99826.38;;;18.22;46.75
70555;BME280;58104;52.744;15.242;2023-12-20T10:52:34;99833.43;;;18.22;46.72
70555;BME280;58104;52.744;15.242;2023-12-20T10:54:59;99833.59;;;18.25;46.63
70555;BME280;58104;52.744;15.242;2023-12-20T10:57:27;99825.24;;;18.20;46.71
70555;BME280;58104;52.744;15.242;2023-12-20T10:59:51;99816.87;;;18.12;46.68
70555;BME280;58104;52.744;15.242;2023-12-20T11:02:16;99813.92;;;18.22;46.67
70555;BME280;58104;52.744;15.242;2023-12-20T11:04:47;99817.14;;;18.19;46.64
70555;BME280;58104;52.744;15.242;2023-12-20T11:07:17;99811.16;;;18.18;46.53
70555;BME280;58104;52.744;15.242;2023-12-20T11:09:37;99806.51;;;18.24;46.54
70555;BME280;58104;52.744;15.242;2023-12-20T11:12:04;99799.09;;;18.11;46.60
70555;BME280;58104;52.744;15.242;2023-12-20T11:14:25;99787.84;;;18.17;46.60
70555;BME280;58104;52.744;15.242;2023-12-20T11:16:48;99783.16;;;18.23;46.43
70555;BME280;58104;52.744;15.242;2023-12-20T11:19:13;99785.79;;;18.25;46.44
70555;BME280;58104;52.744;15.242;2023-12-20T11:21:39;99783.65;;;18.28;46.57
70555;BME280;58104;52.744;15.242;2023-12-20T11:24:05;99782.78;;;18.31;46.42
70555;BME280;58104;52.744;15.242;2023-12-20T11:26:30;99782.84;;;18.27;46.30
70555;BME280;58104;52.744;15.242;2023-12-20T11:31:20;99785.60;;;18.19;46.38
70555;BME280;58104;52.744;15.242;2023-12-20T11:33:46;99762.72;;;18.25;46.36
70555;BME280;58104;52.744;15.242;2023-12-20T11:36:14;99750.05;;;18.32;46.15
70555;BME280;58104;52.744;15.242;2023-12-20T11:38:37;99743.18;;;18.33;46.21
70555;BME280;58104;52.744;15.242;2023-12-20T11:41:02;99750.94;;;18.30;46.14
70555;BME280;58104;52.744;15.242;2023-12-20T11:43:31;99747.56;;;18.27;46.16
70555;BME280;58104;52.744;15.242;2023-12-20T11:45:52;99746.23;;;18.42;46.06
70555;BME280;58104;52.744;15.242;2023-12-20T11:48:19;99754.06;;;18.30;46.01
70555;BME280;58104;52.744;15.242;2023-12-20T11:50:43;99744.77;;;18.26;46.23
70555;BME280;58104;52.744;15.242;2023-12-20T11:53:08;99747.75;;;18.18;46.34
70555;BME280;58104;52.744;15.242;2023-12-20T11:55:34;99743.41;;;18.25;46.19
70555;BME280;58104;52.744;15.242;2023-12-20T11:57:59;99748.53;;;18.26;46.29
70555;BME280;58104;52.744;15.242;2023-12-20T12:00:25;99737.96;;;18.24;46.13
70555;BME280;58104;52.744;15.242;2023-12-20T12:02:56;99738.24;;;18.31;46.02
70555;BME280;58104;52.744;15.242;2023-12-20T12:05:15;99720.54;;;18.29;46.08
70555;BME280;58104;52.744;15.242;2023-12-20T12:07:40;99725.07;;;18.33;45.78
70555;BME280;58104;52.744;15.242;2023-12-20T12:10:07;99713.73;;;18.30;45.84
70555;BME280;58104;52.744;15.242;2023-12-20T12:12:31;99720.63;;;18.35;45.74
70555;BME280;58104;52.744;15.242;2023-12-20T12:14:57;99712.17;;;18.31;45.97
70555;BME280;58104;52.744;15.242;2023-12-20T12:17:22;99703.91;;;18.23;45.91
70555;BME280;58104;52.744;15.242;2023-12-20T12:19:47;99696.80;;;18.25;45.96
70555;BME280;58104;52.744;15.242;2023-12-20T12:22:14;99694.48;;;18.24;46.14
70555;BME280;58104;52.744;15.242;2023-12-20T12:24:38;99686.73;;;18.24;46.10
70555;BME280;58104;52.744;15.242;2023-12-20T12:27:06;99687.12;;;18.22;46.12
70555;BME280;58104;52.744;15.242;2023-12-20T12:29:29;99680.37;;;18.17;46.20
70555;BME280;58104;52.744;15.242;2023-12-20T12:31:55;99672.03;;;18.24;46.14
70555;BME280;58104;52.744;15.242;2023-12-20T12:34:20;99665.26;;;18.27;45.94
70555;BME280;58104;52.744;15.242;2023-12-20T12:36:45;99660.32;;;18.21;46.07